createdAt,value
2023-05-17T00:00:23.370Z,8.08
2023-05-17T00:02:49.900Z,8.03
2023-05-17T00:05:16.477Z,8.08
2023-05-17T00:07:43.181Z,7.96
2023-05-17T00:10:09.835Z,8.00
2023-05-17T00:12:36.264Z,7.87
2023-05-17T00:15:02.806Z,7.88
2023-05-17T00:17:29.588Z,7.85
2023-05-17T00:19:56.178Z,7.97
2023-05-17T00:22:22.642Z,7.82
2023-05-17T00:24:49.129Z,7.71
2023-05-17T00:27:15.635Z,7.67
2023-05-17T00:29:42.202Z,7.71
2023-05-17T00:32:10.492Z,7.70
2023-05-17T00:34:37.236Z,7.67
2023-05-17T00:37:03.838Z,7.57
2023-05-17T00:39:30.339Z,7.49
2023-05-17T00:41:57.782Z,7.49
2023-05-17T00:44:24.234Z,7.42
2023-05-17T00:46:50.764Z,7.49
2023-05-17T00:49:17.619Z,7.48
2023-05-17T00:51:44.817Z,7.45
2023-05-17T00:54:12.049Z,7.42
2023-05-17T00:56:39.109Z,7.37
2023-05-17T00:59:06.610Z,7.32
2023-05-17T01:01:35.371Z,7.27
2023-05-17T01:04:02.485Z,7.23
2023-05-17T01:06:29.023Z,7.29
2023-05-17T01:08:55.588Z,7.22
2023-05-17T01:11:38.683Z,7.26
2023-05-17T01:14:30.078Z,7.21
2023-05-17T01:17:01.775Z,7.17
2023-05-17T01:19:34.438Z,7.15
2023-05-17T01:22:42.122Z,7.12
2023-05-17T01:25:51.992Z,7.16
2023-05-17T01:28:21.225Z,7.14
2023-05-17T01:30:48.651Z,7.10
2023-05-17T01:33:16.305Z,7.05
2023-05-17T01:35:43.024Z,7.15
2023-05-17T01:38:09.593Z,7.23
2023-05-17T01:40:46.145Z,7.18
2023-05-17T01:43:29.200Z,7.14
2023-05-17T01:46:07.264Z,7.13
2023-05-17T01:48:41.214Z,7.14
2023-05-17T01:51:11.889Z,7.15
2023-05-17T01:53:44.462Z,7.20
2023-05-17T01:56:17.888Z,7.21
2023-05-17T01:58:48.915Z,7.25
2023-05-17T02:01:17.734Z,7.23
2023-05-17T02:03:47.516Z,7.25
2023-05-17T02:06:14.046Z,7.27
2023-05-17T02:08:41.545Z,7.36
2023-05-17T02:11:08.122Z,7.43
2023-05-17T02:13:34.650Z,7.39
2023-05-17T02:16:04.333Z,7.44
2023-05-17T02:18:35.373Z,7.52
2023-05-17T02:21:02.167Z,7.60
2023-05-17T02:23:28.620Z,7.70
2023-05-17T02:25:55.159Z,7.57
2023-05-17T02:28:21.620Z,7.66
2023-05-17T02:30:48.814Z,7.72
2023-05-17T02:33:15.283Z,7.72
2023-05-17T02:35:42.188Z,7.79
2023-05-17T02:38:08.666Z,7.71
2023-05-17T02:40:35.069Z,7.69
2023-05-17T02:43:02.692Z,7.66
2023-05-17T02:45:29.349Z,7.75
2023-05-17T02:47:55.956Z,7.72
2023-05-17T02:50:22.427Z,7.65
2023-05-17T02:52:48.910Z,7.64
2023-05-17T02:55:15.730Z,7.53
2023-05-17T02:57:42.598Z,7.50
2023-05-17T03:00:10.026Z,7.47
2023-05-17T03:02:37.009Z,7.46
2023-05-17T03:05:05.054Z,7.51
2023-05-17T03:07:32.100Z,7.52
2023-05-17T03:09:58.634Z,7.50
2023-05-17T03:12:29.450Z,7.36
2023-05-17T03:14:56.352Z,7.39
2023-05-17T03:17:24.083Z,7.38
2023-05-17T03:19:50.586Z,7.27
2023-05-17T03:22:17.380Z,7.26
2023-05-17T03:24:43.958Z,7.34
2023-05-17T03:27:10.699Z,7.33
2023-05-17T03:29:37.344Z,7.22
2023-05-17T03:32:04.332Z,7.20
2023-05-17T03:34:31.451Z,7.20
2023-05-17T03:36:57.893Z,7.22
2023-05-17T03:39:24.594Z,7.22
2023-05-17T03:41:51.079Z,7.20
2023-05-17T03:44:19.000Z,7.19
2023-05-17T03:46:46.169Z,7.14
2023-05-17T03:49:13.663Z,7.13
2023-05-17T03:51:41.510Z,7.00
2023-05-17T03:54:07.931Z,6.95
2023-05-17T03:56:34.425Z,6.97
2023-05-17T03:59:00.976Z,7.00
2023-05-17T04:01:27.491Z,6.88
2023-05-17T04:03:54.046Z,6.93
2023-05-17T04:06:22.101Z,7.03
2023-05-17T04:08:48.957Z,7.00
2023-05-17T04:11:15.479Z,6.99
2023-05-17T04:13:43.104Z,6.95
2023-05-17T04:16:09.988Z,6.96
2023-05-17T04:18:39.151Z,7.00
2023-05-17T04:21:06.451Z,6.97
2023-05-17T04:23:34.871Z,6.97
2023-05-17T04:26:03.256Z,6.85
2023-05-17T04:28:32.024Z,6.96
2023-05-17T04:30:58.581Z,7.17
2023-05-17T04:33:26.381Z,7.22
2023-05-17T04:35:56.811Z,7.11
2023-05-17T04:38:25.164Z,7.13
2023-05-17T04:40:51.855Z,7.27
2023-05-17T04:43:19.132Z,7.42
2023-05-17T04:45:46.742Z,7.45
2023-05-17T04:48:14.984Z,7.39
2023-05-17T04:50:45.463Z,7.34
2023-05-17T04:53:12.429Z,7.48
2023-05-17T04:55:38.975Z,7.42
2023-05-17T04:58:05.833Z,7.55
2023-05-17T05:00:33.019Z,7.65
2023-05-17T05:03:05.017Z,7.59
2023-05-17T05:05:32.277Z,7.56
2023-05-17T05:07:58.964Z,7.54
2023-05-17T05:10:28.652Z,7.63
2023-05-17T05:12:55.977Z,7.52
2023-05-17T05:15:23.443Z,7.64
2023-05-17T05:17:55.290Z,7.65
2023-05-17T05:20:21.958Z,7.60
2023-05-17T05:22:48.635Z,7.70
2023-05-17T05:25:17.437Z,7.82
2023-05-17T05:27:44.762Z,7.91
2023-05-17T05:30:13.574Z,7.95
2023-05-17T05:32:40.382Z,7.89
2023-05-17T05:35:07.516Z,7.88
2023-05-17T05:37:33.992Z,7.89
2023-05-17T05:40:00.625Z,8.00
2023-05-17T05:42:29.578Z,8.01
2023-05-17T05:44:56.048Z,8.02
2023-05-17T05:47:23.722Z,8.08
2023-05-17T05:49:50.498Z,8.12
2023-05-17T05:52:17.297Z,8.22
2023-05-17T05:54:44.970Z,8.37
2023-05-17T05:57:11.572Z,8.41
2023-05-17T05:59:39.395Z,8.30
2023-05-17T06:02:06.534Z,8.31
2023-05-17T06:04:44.639Z,8.38
2023-05-17T06:07:13.454Z,8.54
2023-05-17T06:09:40.623Z,8.62
2023-05-17T06:12:07.226Z,8.81
2023-05-17T06:14:33.880Z,8.91
2023-05-17T06:17:00.346Z,8.82
2023-05-17T06:19:26.902Z,8.92
2023-05-17T06:21:53.421Z,8.68
2023-05-17T06:24:19.897Z,8.75
2023-05-17T06:26:47.204Z,8.92
2023-05-17T06:29:13.810Z,8.94
2023-05-17T06:31:40.592Z,8.90
2023-05-17T06:34:07.119Z,8.89
2023-05-17T06:36:34.279Z,8.93
2023-05-17T06:39:02.565Z,9.02
2023-05-17T06:41:29.050Z,9.01
2023-05-17T06:43:55.552Z,9.25
2023-05-17T06:46:21.998Z,9.37
2023-05-17T06:48:50.957Z,9.72
2023-05-17T06:51:17.876Z,9.98
2023-05-17T06:53:44.527Z,10.00
2023-05-17T06:56:11.083Z,9.90
2023-05-17T06:58:37.716Z,9.87
2023-05-17T07:01:04.318Z,9.80
2023-05-17T07:03:30.937Z,9.83
2023-05-17T07:05:57.464Z,9.89
2023-05-17T07:08:23.897Z,9.73
2023-05-17T07:10:54.147Z,9.90
2023-05-17T07:13:20.711Z,10.12
2023-05-17T07:15:47.351Z,10.04
2023-05-17T07:18:14.056Z,9.79
2023-05-17T07:20:40.717Z,9.93
2023-05-17T07:23:07.690Z,10.11
2023-05-17T07:25:34.357Z,10.14
2023-05-17T07:28:00.972Z,10.09
2023-05-17T07:30:27.436Z,10.30
2023-05-17T07:32:54.084Z,10.39
2023-05-17T07:35:21.846Z,10.40
2023-05-17T07:37:48.603Z,10.25
2023-05-17T07:40:15.119Z,10.32
2023-05-17T07:42:47.996Z,10.57
2023-05-17T07:45:14.687Z,10.82
2023-05-17T07:47:41.271Z,10.64
2023-05-17T07:50:08.609Z,10.55
2023-05-17T07:52:35.135Z,10.62
2023-05-17T07:55:02.144Z,10.43
2023-05-17T07:57:29.087Z,10.59
2023-05-17T07:59:55.875Z,10.75
2023-05-17T08:02:22.361Z,10.67
2023-05-17T08:04:49.027Z,10.51
2023-05-17T08:07:15.571Z,10.91
2023-05-17T08:09:44.249Z,11.16
2023-05-17T08:12:11.183Z,11.20
2023-05-17T08:14:38.600Z,11.04
2023-05-17T08:17:05.069Z,10.82
2023-05-17T08:19:31.672Z,10.89
2023-05-17T08:21:58.753Z,11.06
2023-05-17T08:24:25.404Z,10.94
2023-05-17T08:26:54.510Z,11.17
2023-05-17T08:29:21.093Z,11.02
2023-05-17T08:31:47.618Z,11.06
2023-05-17T08:34:14.551Z,11.08
2023-05-17T08:36:41.351Z,11.04
2023-05-17T08:39:08.622Z,11.00
2023-05-17T08:41:38.226Z,10.97
2023-05-17T08:44:06.390Z,10.96
2023-05-17T08:46:34.872Z,10.98
2023-05-17T08:49:04.114Z,10.99
2023-05-17T08:51:32.516Z,11.37
2023-05-17T08:53:59.446Z,11.93
2023-05-17T08:56:26.488Z,11.72
2023-05-17T08:58:57.883Z,11.62
2023-05-17T09:01:26.400Z,11.37
2023-05-17T09:03:54.474Z,11.29
2023-05-17T09:06:22.229Z,11.20
2023-05-17T09:08:52.644Z,11.72
2023-05-17T09:11:27.791Z,11.85
2023-05-17T09:13:58.073Z,12.18
2023-05-17T09:16:25.013Z,12.51
2023-05-17T09:27:09.627Z,12.02
2023-05-17T09:29:36.337Z,12.21
2023-05-17T09:32:13.912Z,12.59
2023-05-17T09:34:41.962Z,12.76
2023-05-17T09:37:15.242Z,12.38
2023-05-17T09:39:44.892Z,11.97
2023-05-17T09:42:12.635Z,12.25
2023-05-17T09:45:05.480Z,12.25
2023-05-17T09:47:35.139Z,12.20
2023-05-17T09:50:05.134Z,12.18
2023-05-17T09:52:32.330Z,12.68
2023-05-17T09:54:59.910Z,12.82
2023-05-17T09:57:29.014Z,12.18
2023-05-17T09:59:57.446Z,12.25
2023-05-17T10:02:28.678Z,12.04
2023-05-17T10:04:57.187Z,11.90
2023-05-17T10:07:26.346Z,11.73
2023-05-17T10:09:57.450Z,11.71
2023-05-17T10:12:29.426Z,11.51
2023-05-17T10:14:56.882Z,11.98
2023-05-17T10:17:24.442Z,12.73
2023-05-17T10:19:51.463Z,12.78
2023-05-17T10:22:23.232Z,12.54
2023-05-17T10:24:51.734Z,12.60
2023-05-17T10:27:18.662Z,12.37
2023-05-17T10:29:47.640Z,12.41
2023-05-17T10:32:16.902Z,12.26
2023-05-17T10:34:45.721Z,12.35
2023-05-17T10:37:14.802Z,12.60
2023-05-17T10:39:43.821Z,12.95
2023-05-17T10:42:15.230Z,13.29
2023-05-17T10:44:42.953Z,13.11
2023-05-17T10:47:11.727Z,13.12
2023-05-17T10:49:39.841Z,13.52
2023-05-17T10:52:15.628Z,13.88
2023-05-17T10:54:44.351Z,13.83
2023-05-17T10:57:22.692Z,13.69
2023-05-17T11:00:00.589Z,13.32
2023-05-17T11:02:32.795Z,12.75
2023-05-17T11:05:00.502Z,12.68
2023-05-17T11:07:32.792Z,13.12
2023-05-17T11:10:00.498Z,13.02
2023-05-17T11:12:41.857Z,12.86
2023-05-17T11:15:15.984Z,12.95
2023-05-17T11:17:54.551Z,13.29
2023-05-17T11:20:27.916Z,13.48
2023-05-17T11:23:07.658Z,13.47
2023-05-17T11:25:36.959Z,13.13
2023-05-17T11:28:18.497Z,13.36
2023-05-17T11:30:51.385Z,13.72
2023-05-17T11:33:32.365Z,13.41
2023-05-17T11:36:13.965Z,13.09
2023-05-17T11:41:57.901Z,12.91
2023-05-17T11:44:34.525Z,12.74
2023-05-17T11:47:11.493Z,12.66
2023-05-17T11:49:39.187Z,12.97
2023-05-17T11:52:06.982Z,13.09
2023-05-17T11:54:34.488Z,13.05
2023-05-17T11:57:02.821Z,12.95
2023-05-17T11:59:29.511Z,12.84
2023-05-17T12:01:56.695Z,12.83
2023-05-17T12:04:26.028Z,12.53
2023-05-17T12:06:54.407Z,12.55
2023-05-17T12:09:23.012Z,12.57
2023-05-17T12:11:49.897Z,13.21
2023-05-17T12:14:21.666Z,13.46
2023-05-17T12:16:56.483Z,13.12
2023-05-17T12:19:25.142Z,13.53
2023-05-17T12:21:51.807Z,13.63
2023-05-17T12:24:18.741Z,13.85
2023-05-17T12:26:47.389Z,14.37
2023-05-17T12:29:19.329Z,14.55
2023-05-17T12:31:49.602Z,14.33
2023-05-17T12:34:18.149Z,14.37
2023-05-17T12:36:45.710Z,14.08
2023-05-17T12:39:14.125Z,13.86
2023-05-17T12:41:41.899Z,13.59
2023-05-17T12:44:15.228Z,13.87
2023-05-17T12:46:44.051Z,13.62
2023-05-17T12:49:12.062Z,13.42
2023-05-17T12:51:46.122Z,13.27
2023-05-17T12:54:16.014Z,13.36
2023-05-17T12:56:46.519Z,13.20
2023-05-17T12:59:20.807Z,13.70
2023-05-17T13:01:48.367Z,14.01
2023-05-17T13:04:16.747Z,13.85
2023-05-17T13:06:44.859Z,13.71
2023-05-17T13:09:11.596Z,13.52
2023-05-17T13:11:41.240Z,13.45
2023-05-17T13:14:09.474Z,13.38
2023-05-17T13:16:40.356Z,13.54
2023-05-17T13:19:14.239Z,13.52
2023-05-17T13:21:41.099Z,13.61
2023-05-17T13:24:09.383Z,13.49
2023-05-17T13:26:36.035Z,13.55
2023-05-17T13:29:02.513Z,13.79
2023-05-17T13:31:28.964Z,13.90
2023-05-17T13:33:55.619Z,14.01
2023-05-17T13:36:22.179Z,14.13
2023-05-17T13:38:48.650Z,14.16
2023-05-17T13:41:15.793Z,13.99
2023-05-17T13:43:42.328Z,13.64
2023-05-17T13:46:09.286Z,13.37
2023-05-17T13:48:36.108Z,13.36
2023-05-17T13:51:02.724Z,13.55
2023-05-17T13:53:29.293Z,13.68
2023-05-17T13:55:56.000Z,13.67
2023-05-17T13:58:22.471Z,13.34
2023-05-17T14:00:49.637Z,13.45
2023-05-17T14:03:16.161Z,13.29
2023-05-17T14:05:43.343Z,13.59
2023-05-17T14:08:09.894Z,14.04
2023-05-17T14:10:36.633Z,14.21
2023-05-17T14:13:03.241Z,14.05
2023-05-17T14:15:29.793Z,14.04
2023-05-17T14:17:56.297Z,13.88
2023-05-17T14:20:22.835Z,13.71
2023-05-17T14:22:49.491Z,13.27
2023-05-17T14:25:16.034Z,13.36
2023-05-17T14:27:43.097Z,13.45
2023-05-17T14:30:12.823Z,13.93
2023-05-17T14:32:41.037Z,14.01
2023-05-17T14:35:08.361Z,14.20
2023-05-17T14:37:35.649Z,14.50
2023-05-17T14:40:06.738Z,14.45
2023-05-17T14:42:33.711Z,14.58
2023-05-17T14:45:00.226Z,14.58
2023-05-17T14:47:27.502Z,14.45
2023-05-17T14:49:54.049Z,14.06
2023-05-17T14:52:20.563Z,14.08
2023-05-17T14:54:47.230Z,13.86
2023-05-17T14:57:14.187Z,13.78
2023-05-17T14:59:45.216Z,13.80
2023-05-17T15:02:12.002Z,13.61
2023-05-17T15:04:38.787Z,13.61
2023-05-17T15:07:05.954Z,13.85
2023-05-17T15:09:34.087Z,13.53
2023-05-17T15:12:00.561Z,13.29
2023-05-17T15:14:26.997Z,13.37
2023-05-17T15:16:53.559Z,13.65
2023-05-17T15:19:20.126Z,13.71
2023-05-17T15:21:47.028Z,13.75
2023-05-17T15:24:16.020Z,14.08
2023-05-17T15:26:44.439Z,13.77
2023-05-17T15:29:10.941Z,13.67
2023-05-17T15:31:37.499Z,13.88
2023-05-17T15:34:04.750Z,14.00
2023-05-17T15:36:31.559Z,13.92
2023-05-17T15:38:58.124Z,13.49
2023-05-17T15:41:29.873Z,13.48
2023-05-17T15:43:56.918Z,13.50
2023-05-17T15:46:23.513Z,13.30
2023-05-17T15:48:50.113Z,13.51
2023-05-17T15:51:16.649Z,13.70
2023-05-17T15:53:43.364Z,13.79
2023-05-17T15:56:10.376Z,13.63
2023-05-17T15:58:37.046Z,13.64
2023-05-17T16:01:04.693Z,13.37
2023-05-17T16:03:31.598Z,13.56
2023-05-17T16:05:58.171Z,13.79
2023-05-17T16:08:25.482Z,13.58
2023-05-17T16:10:52.207Z,13.78
2023-05-17T16:13:18.663Z,13.58
2023-05-17T16:15:45.416Z,13.82
2023-05-17T16:18:14.729Z,13.83
2023-05-17T16:20:41.966Z,14.01
2023-05-17T16:23:08.543Z,13.57
2023-05-17T16:25:35.107Z,13.37
2023-05-17T16:28:02.195Z,13.15
2023-05-17T16:30:28.744Z,12.96
2023-05-17T16:32:55.344Z,12.72
2023-05-17T16:35:22.440Z,12.58
2023-05-17T16:37:52.166Z,12.56
2023-05-17T16:40:18.642Z,12.70
2023-05-17T16:42:45.335Z,12.76
2023-05-17T16:45:11.982Z,12.86
2023-05-17T16:47:38.574Z,12.77
2023-05-17T16:50:06.606Z,12.60
2023-05-17T16:52:33.030Z,12.68
2023-05-17T16:55:03.187Z,12.68
2023-05-17T16:57:31.556Z,12.58
2023-05-17T17:00:00.401Z,12.75
2023-05-17T17:02:27.811Z,12.83
2023-05-17T17:04:54.579Z,12.79
2023-05-17T17:07:21.173Z,12.85
2023-05-17T17:09:47.664Z,13.08
2023-05-17T17:12:24.065Z,12.87
2023-05-17T17:14:51.557Z,12.62
2023-05-17T17:17:18.024Z,12.50
2023-05-17T17:19:44.611Z,12.52
2023-05-17T17:22:12.053Z,12.43
2023-05-17T17:24:39.652Z,12.41
2023-05-17T17:27:06.184Z,12.21
2023-05-17T17:29:33.962Z,12.27
2023-05-17T17:32:00.709Z,12.38
2023-05-17T17:34:27.263Z,12.20
2023-05-17T17:36:53.861Z,12.23
2023-05-17T17:39:20.713Z,12.14
2023-05-17T17:41:47.230Z,12.13
2023-05-17T17:44:14.140Z,12.13
2023-05-17T17:46:41.310Z,11.97
2023-05-17T17:49:07.848Z,11.79
2023-05-17T17:51:34.328Z,11.53
2023-05-17T17:54:00.863Z,11.43
2023-05-17T17:56:27.917Z,11.24
2023-05-17T17:58:55.898Z,11.15
2023-05-17T18:01:23.118Z,11.00
2023-05-17T18:03:49.779Z,11.05
2023-05-17T18:06:16.332Z,11.01
2023-05-17T18:08:43.248Z,11.02
2023-05-17T18:11:09.779Z,11.07
2023-05-17T18:13:36.519Z,11.02
2023-05-17T18:16:03.200Z,10.90
2023-05-17T18:18:29.642Z,10.76
2023-05-17T18:20:56.224Z,10.71
2023-05-17T18:23:22.746Z,10.52
2023-05-17T18:25:50.681Z,10.50
2023-05-17T18:28:21.718Z,10.31
2023-05-17T18:30:58.073Z,10.18
2023-05-17T18:33:25.400Z,10.11
2023-05-17T18:35:51.913Z,10.11
2023-05-17T18:38:18.463Z,10.09
2023-05-17T18:40:45.730Z,9.97
2023-05-17T18:43:12.988Z,9.95
2023-05-17T18:45:39.640Z,9.98
2023-05-17T18:48:06.325Z,9.88
2023-05-17T18:50:33.013Z,9.87
2023-05-17T18:53:02.224Z,9.84
2023-05-17T18:55:28.685Z,9.90
2023-05-17T18:57:55.261Z,9.69
2023-05-17T19:00:21.710Z,9.64
2023-05-17T19:02:48.421Z,9.49
2023-05-17T19:05:15.348Z,9.37
2023-05-17T19:07:42.126Z,9.32
2023-05-17T19:10:09.062Z,9.27
2023-05-17T19:12:35.619Z,9.27
2023-05-17T19:15:02.861Z,9.17
2023-05-17T19:17:29.763Z,9.12
2023-05-17T19:19:56.440Z,9.04
2023-05-17T19:22:22.852Z,9.09
2023-05-17T19:24:50.841Z,9.01
2023-05-17T19:27:19.879Z,9.02
2023-05-17T19:29:49.269Z,8.96
2023-05-17T19:32:15.985Z,8.95
2023-05-17T19:34:43.117Z,8.89
2023-05-17T19:37:09.715Z,8.90
2023-05-17T19:39:36.325Z,8.86
2023-05-17T19:42:03.289Z,8.73
2023-05-17T19:44:30.573Z,8.67
2023-05-17T19:46:57.381Z,8.68
2023-05-17T19:49:23.963Z,8.65
2023-05-17T19:51:53.868Z,8.69
2023-05-17T19:54:21.812Z,8.50
2023-05-17T19:56:48.253Z,8.51
2023-05-17T19:59:14.832Z,8.44
2023-05-17T20:01:41.502Z,8.39
2023-05-17T20:04:10.274Z,8.42
2023-05-17T20:06:37.058Z,8.37
2023-05-17T20:09:04.418Z,8.30
2023-05-17T20:11:31.058Z,8.34
2023-05-17T20:13:57.573Z,8.29
2023-05-17T20:16:27.800Z,8.33
2023-05-17T20:18:55.009Z,8.28
2023-05-17T20:21:22.832Z,8.20
2023-05-17T20:23:51.336Z,8.17
2023-05-17T20:26:25.370Z,8.03
2023-05-17T20:28:52.663Z,7.98
2023-05-17T20:31:19.506Z,8.06
2023-05-17T20:33:46.133Z,7.90
2023-05-17T20:36:14.684Z,7.85
2023-05-17T20:38:42.393Z,7.87
2023-05-17T20:41:10.914Z,7.87
2023-05-17T20:43:37.640Z,7.79
2023-05-17T20:46:09.382Z,7.79
2023-05-17T20:48:36.518Z,7.74
2023-05-17T20:51:05.615Z,7.67
2023-05-17T20:53:32.184Z,7.71
2023-05-17T20:55:58.671Z,7.72
2023-05-17T20:58:25.132Z,7.66
2023-05-17T21:00:52.856Z,7.66
2023-05-17T21:03:19.598Z,7.61
2023-05-17T21:05:46.483Z,7.52
2023-05-17T21:08:14.095Z,7.50
2023-05-17T21:10:43.138Z,7.49
2023-05-17T21:13:09.741Z,7.41
2023-05-17T21:15:36.639Z,7.37
2023-05-17T21:18:03.617Z,7.35
2023-05-17T21:20:30.760Z,7.39
2023-05-17T21:22:57.233Z,7.30
2023-05-17T21:25:23.804Z,7.32
2023-05-17T21:27:50.834Z,7.24
2023-05-17T21:30:17.434Z,7.22
2023-05-17T21:32:43.882Z,7.24
2023-05-17T21:35:10.450Z,7.16
2023-05-17T21:37:39.914Z,7.15
2023-05-17T21:40:08.052Z,7.06
2023-05-17T21:42:34.584Z,7.07
2023-05-17T21:45:04.057Z,7.03
2023-05-17T21:47:30.614Z,6.97
2023-05-17T21:49:57.171Z,6.92
2023-05-17T21:52:23.657Z,6.91
2023-05-17T21:54:50.134Z,6.91
2023-05-17T21:57:16.629Z,6.85
2023-05-17T21:59:43.388Z,6.74
2023-05-17T22:02:09.827Z,6.75
2023-05-17T22:04:36.886Z,6.68
2023-05-17T22:07:09.287Z,6.65
2023-05-17T22:09:36.109Z,6.63
2023-05-17T22:12:04.841Z,6.64
2023-05-17T22:14:34.282Z,6.58
2023-05-17T22:17:00.756Z,6.56
2023-05-17T22:19:30.134Z,6.59
2023-05-17T22:21:56.762Z,6.59
2023-05-17T22:24:23.257Z,6.54
2023-05-17T22:26:49.986Z,6.48
2023-05-17T22:29:16.471Z,6.45
2023-05-17T22:31:43.534Z,6.39
2023-05-17T22:34:09.966Z,6.37
2023-05-17T22:36:36.389Z,6.38
2023-05-17T22:39:03.025Z,6.46
2023-05-17T22:41:29.450Z,6.40
2023-05-17T22:43:56.097Z,6.29
2023-05-17T22:46:22.725Z,6.23
2023-05-17T22:48:50.067Z,6.15
2023-05-17T22:51:18.565Z,6.13
2023-05-17T22:53:45.611Z,6.01
2023-05-17T22:56:12.239Z,5.93
2023-05-17T22:58:38.827Z,5.96
2023-05-17T23:01:05.685Z,5.91
2023-05-17T23:03:32.313Z,5.97
2023-05-17T23:06:05.142Z,5.94
2023-05-17T23:08:32.196Z,6.01
2023-05-17T23:10:58.764Z,6.08
2023-05-17T23:13:26.027Z,5.86
2023-05-17T23:15:52.773Z,5.83
2023-05-17T23:18:19.395Z,5.78
2023-05-17T23:20:46.435Z,5.71
2023-05-17T23:23:15.853Z,5.61
2023-05-17T23:25:50.189Z,5.66
2023-05-17T23:28:18.203Z,5.69
2023-05-17T23:30:48.342Z,5.77
2023-05-17T23:33:15.309Z,5.70
2023-05-17T23:35:44.624Z,5.65
2023-05-17T23:38:11.230Z,5.52
2023-05-17T23:40:37.854Z,5.45
2023-05-17T23:43:04.392Z,5.47
2023-05-17T23:45:31.157Z,5.38
2023-05-17T23:48:01.006Z,5.33
2023-05-17T23:50:27.579Z,5.35
2023-05-17T23:52:54.175Z,5.32
2023-05-17T23:55:26.309Z,5.42
2023-05-17T23:57:52.849Z,5.34
